createdAt,value
2018-12-31T00:01:45.934Z,101249.66
2018-12-31T00:04:51.071Z,101248.62
2018-12-31T00:07:56.292Z,101252.20
2018-12-31T00:11:01.496Z,101248.33
2018-12-31T00:14:06.653Z,101253.14
2018-12-31T00:17:11.818Z,101257.55
2018-12-31T00:20:16.989Z,101256.86
2018-12-31T00:23:22.223Z,101259.00
2018-12-31T00:26:27.367Z,101248.19
2018-12-31T00:29:32.542Z,101260.03
2018-12-31T00:32:37.811Z,101254.55
2018-12-31T00:35:42.983Z,101248.29
2018-12-31T00:38:48.156Z,101250.47
2018-12-31T00:41:53.304Z,101247.48
2018-12-31T00:44:58.542Z,101256.63
2018-12-31T00:48:03.738Z,101254.08
2018-12-31T00:51:08.916Z,101262.95
2018-12-31T00:54:14.097Z,101259.03
2018-12-31T00:57:19.282Z,101262.38
2018-12-31T01:00:24.465Z,101265.79
2018-12-31T01:03:29.681Z,101262.38
2018-12-31T01:06:34.816Z,101261.70
2018-12-31T01:09:40.040Z,101261.81
2018-12-31T01:12:45.188Z,101270.44
2018-12-31T01:15:50.319Z,101264.98
2018-12-31T01:18:55.502Z,101261.38
2018-12-31T01:22:06.073Z,101260.09
2018-12-31T01:25:11.243Z,101255.89
2018-12-31T01:28:16.348Z,101251.38
2018-12-31T01:31:21.478Z,101255.22
2018-12-31T01:34:26.606Z,101253.21
2018-12-31T01:37:31.947Z,101265.89
2018-12-31T01:40:37.069Z,101275.80
2018-12-31T01:43:42.283Z,101277.96
2018-12-31T01:46:47.468Z,101278.94
2018-12-31T01:49:52.686Z,101266.39
2018-12-31T01:52:57.848Z,101260.20
2018-12-31T01:56:02.985Z,101258.77
2018-12-31T01:59:08.253Z,101260.34
2018-12-31T02:02:13.349Z,101253.64
2018-12-31T02:05:18.564Z,101260.02
2018-12-31T02:08:23.797Z,101256.52
2018-12-31T02:11:28.999Z,101255.31
2018-12-31T02:14:34.204Z,101246.70
2018-12-31T02:17:39.595Z,101242.59
2018-12-31T02:20:44.820Z,101239.32
2018-12-31T02:23:49.955Z,101234.56
2018-12-31T02:26:55.150Z,101230.35
2018-12-31T02:30:00.448Z,101225.58
2018-12-31T02:33:05.631Z,101230.66
2018-12-31T02:36:10.892Z,101224.83
2018-12-31T02:39:16.079Z,101227.12
2018-12-31T02:42:21.233Z,101232.84
2018-12-31T02:45:26.333Z,101231.43
2018-12-31T02:48:31.523Z,101226.24
2018-12-31T02:51:36.636Z,101224.20
2018-12-31T02:54:41.806Z,101213.80
2018-12-31T02:57:46.973Z,101213.70
2018-12-31T03:00:52.236Z,101207.38
2018-12-31T03:03:57.407Z,101208.43
2018-12-31T03:07:02.563Z,101209.80
2018-12-31T03:10:07.932Z,101220.78
2018-12-31T03:13:13.125Z,101205.96
2018-12-31T03:16:18.359Z,101210.67
2018-12-31T03:19:23.647Z,101208.97
2018-12-31T03:22:28.758Z,101201.57
2018-12-31T03:25:33.915Z,101203.00
2018-12-31T03:28:39.106Z,101193.94
2018-12-31T03:31:44.282Z,101190.53
2018-12-31T03:34:49.466Z,101190.59
2018-12-31T03:37:54.671Z,101187.55
2018-12-31T03:41:00.265Z,101188.47
2018-12-31T03:44:05.404Z,101188.11
2018-12-31T03:47:12.293Z,101187.31
2018-12-31T03:50:17.569Z,101197.50
2018-12-31T03:53:22.779Z,101189.39
2018-12-31T03:56:27.921Z,101189.72
2018-12-31T03:59:33.168Z,101190.75
2018-12-31T04:02:38.428Z,101189.00
2018-12-31T04:05:43.628Z,101195.94
2018-12-31T04:08:48.831Z,101195.58
2018-12-31T04:11:53.921Z,101195.88
2018-12-31T04:14:59.129Z,101199.06
2018-12-31T04:18:04.278Z,101195.38
2018-12-31T04:21:09.494Z,101193.70
2018-12-31T04:24:14.675Z,101196.22
2018-12-31T04:27:19.886Z,101209.60
2018-12-31T04:30:25.035Z,101209.07
2018-12-31T04:33:30.252Z,101213.34
2018-12-31T04:36:35.377Z,101216.66
2018-12-31T04:39:40.486Z,101224.19
2018-12-31T04:42:45.738Z,101224.89
2018-12-31T04:45:50.920Z,101231.41
2018-12-31T04:48:56.108Z,101229.04
2018-12-31T04:52:01.590Z,101236.54
2018-12-31T04:55:06.775Z,101232.02
2018-12-31T04:58:11.961Z,101232.22
2018-12-31T05:01:17.119Z,101234.09
2018-12-31T05:04:22.330Z,101234.80
2018-12-31T05:07:27.507Z,101235.94
2018-12-31T05:10:32.641Z,101242.43
2018-12-31T05:13:37.897Z,101239.86
2018-12-31T05:16:42.940Z,101243.73
2018-12-31T05:19:48.170Z,101249.76
2018-12-31T05:22:53.354Z,101253.50
2018-12-31T05:25:58.464Z,101250.16
2018-12-31T05:29:03.564Z,101252.80
2018-12-31T05:32:08.721Z,101253.20
2018-12-31T05:35:13.929Z,101248.42
2018-12-31T05:38:19.068Z,101252.41
2018-12-31T05:41:24.587Z,101246.98
2018-12-31T05:44:29.750Z,101252.91
2018-12-31T05:47:34.959Z,101259.33
2018-12-31T05:50:40.086Z,101251.30
2018-12-31T05:53:45.286Z,101254.34
2018-12-31T05:56:50.443Z,101250.33
2018-12-31T05:59:55.600Z,101253.20
2018-12-31T06:03:00.715Z,101256.19
2018-12-31T06:06:05.833Z,101255.08
2018-12-31T06:09:11.065Z,101262.78
2018-12-31T06:12:16.259Z,101258.39
2018-12-31T06:15:21.429Z,101258.89
2018-12-31T06:18:26.624Z,101261.34
2018-12-31T06:21:31.711Z,101256.45
2018-12-31T06:24:36.924Z,101257.59
2018-12-31T06:27:42.094Z,101269.30
2018-12-31T06:30:47.292Z,101265.92
2018-12-31T06:33:52.576Z,101263.41
2018-12-31T06:36:57.730Z,101258.27
2018-12-31T06:40:02.894Z,101250.53
2018-12-31T06:43:08.101Z,101254.48
2018-12-31T06:46:13.265Z,101257.16
2018-12-31T06:49:18.471Z,101261.80
2018-12-31T06:52:23.639Z,101255.11
2018-12-31T06:55:28.870Z,101257.55
2018-12-31T06:58:34.090Z,101261.27
2018-12-31T07:01:39.216Z,101258.83
2018-12-31T07:04:44.414Z,101262.84
2018-12-31T07:07:49.632Z,101260.33
2018-12-31T07:10:54.776Z,101265.05
2018-12-31T07:13:59.976Z,101269.72
2018-12-31T07:17:05.152Z,101277.23
2018-12-31T07:20:10.348Z,101278.03
2018-12-31T07:23:15.554Z,101280.34
2018-12-31T07:26:21.764Z,101288.58
2018-12-31T07:29:26.927Z,101290.51
2018-12-31T07:32:32.117Z,101294.32
2018-12-31T07:35:37.281Z,101296.36
2018-12-31T07:38:42.481Z,101308.91
2018-12-31T07:41:47.636Z,101316.34
2018-12-31T07:44:52.830Z,101322.40
2018-12-31T07:47:59.225Z,101329.38
2018-12-31T07:51:04.456Z,101331.48
2018-12-31T07:54:09.654Z,101341.04
2018-12-31T07:57:14.749Z,101354.02
2018-12-31T08:00:19.957Z,101342.77
2018-12-31T08:03:25.140Z,101343.34
2018-12-31T08:06:30.317Z,101353.72
2018-12-31T08:09:35.536Z,101352.66
2018-12-31T08:12:40.719Z,101357.21
2018-12-31T08:15:46.472Z,101369.23
2018-12-31T08:18:51.648Z,101362.74
2018-12-31T08:21:56.840Z,101361.97
2018-12-31T08:25:02.038Z,101360.84
2018-12-31T08:28:07.203Z,101357.89
2018-12-31T08:31:12.378Z,101357.59
2018-12-31T08:34:17.641Z,101351.56
2018-12-31T08:37:22.782Z,101353.33
2018-12-31T08:40:27.966Z,101360.42
2018-12-31T08:43:33.166Z,101348.92
2018-12-31T08:46:38.308Z,101343.66
2018-12-31T08:49:43.532Z,101341.91
2018-12-31T08:52:48.755Z,101333.23
2018-12-31T08:55:53.887Z,101325.47
2018-12-31T08:58:59.083Z,101310.28
2018-12-31T09:02:04.227Z,101317.82
2018-12-31T09:05:09.470Z,101314.70
2018-12-31T09:08:14.640Z,101315.55
2018-12-31T09:11:19.826Z,101324.21
2018-12-31T09:14:24.993Z,101326.64
2018-12-31T09:17:30.085Z,101327.91
2018-12-31T09:20:35.316Z,101326.11
2018-12-31T09:23:40.478Z,101332.42
2018-12-31T09:26:45.654Z,101332.39
2018-12-31T09:29:50.842Z,101333.00
2018-12-31T09:32:55.976Z,101346.03
2018-12-31T09:36:01.117Z,101354.42
2018-12-31T09:39:08.077Z,101354.95
2018-12-31T09:42:13.256Z,101346.24
2018-12-31T09:45:18.441Z,101339.84
2018-12-31T09:48:23.647Z,101337.75
2018-12-31T09:51:28.827Z,101342.48
2018-12-31T09:54:34.079Z,101335.95
2018-12-31T09:57:39.274Z,101343.27
2018-12-31T10:00:44.443Z,101352.67
2018-12-31T10:03:49.614Z,101350.34
2018-12-31T10:06:54.777Z,101357.67
2018-12-31T10:09:59.918Z,101357.06
2018-12-31T10:13:05.099Z,101348.28
2018-12-31T10:16:10.276Z,101350.97
2018-12-31T10:19:15.430Z,101346.00
2018-12-31T10:22:20.557Z,101339.42
2018-12-31T10:25:25.726Z,101347.68
2018-12-31T10:28:30.920Z,101340.73
2018-12-31T10:31:36.065Z,101345.93
2018-12-31T10:34:41.349Z,101343.58
2018-12-31T10:37:46.531Z,101348.30
2018-12-31T10:40:51.724Z,101336.05
2018-12-31T10:43:56.921Z,101329.82
2018-12-31T10:47:02.141Z,101326.79
2018-12-31T10:50:07.690Z,101327.81
2018-12-31T10:53:12.955Z,101320.42
2018-12-31T10:56:18.054Z,101321.36
2018-12-31T10:59:23.289Z,101323.45
2018-12-31T11:02:28.399Z,101318.57
2018-12-31T11:05:33.597Z,101314.67
2018-12-31T11:08:38.753Z,101312.48
2018-12-31T11:11:44.240Z,101315.03
2018-12-31T11:14:49.419Z,101302.21
2018-12-31T11:17:54.582Z,101303.27
2018-12-31T11:20:59.845Z,101299.83
2018-12-31T11:24:05.127Z,101299.55
2018-12-31T11:27:11.182Z,101296.84
2018-12-31T11:30:16.496Z,101299.05
2018-12-31T11:33:21.652Z,101290.80
2018-12-31T11:36:26.826Z,101280.98
2018-12-31T11:39:32.273Z,101280.70
2018-12-31T11:42:37.478Z,101279.40
2018-12-31T11:45:42.609Z,101288.25
2018-12-31T11:48:47.853Z,101284.44
2018-12-31T11:51:52.973Z,101283.75
2018-12-31T11:54:58.215Z,101276.01
2018-12-31T11:58:03.416Z,101278.34
2018-12-31T12:01:08.747Z,101280.03
2018-12-31T12:04:13.921Z,101279.70
2018-12-31T12:07:19.111Z,101273.83
2018-12-31T12:10:24.247Z,101258.15
2018-12-31T12:13:29.471Z,101256.58
2018-12-31T12:16:34.623Z,101253.40
2018-12-31T12:19:39.815Z,101246.36
2018-12-31T12:22:44.995Z,101246.40
2018-12-31T12:25:50.246Z,101234.78
2018-12-31T12:28:55.446Z,101244.39
2018-12-31T12:32:00.615Z,101242.81
2018-12-31T12:35:05.847Z,101235.97
2018-12-31T12:38:11.027Z,101235.66
2018-12-31T12:41:16.222Z,101234.44
2018-12-31T12:44:21.598Z,101235.09
2018-12-31T12:47:26.758Z,101236.89
2018-12-31T12:50:31.979Z,101238.09
2018-12-31T12:53:37.341Z,101240.20
2018-12-31T12:56:42.512Z,101227.09
2018-12-31T12:59:47.786Z,101227.17
2018-12-31T13:02:53.007Z,101228.14
2018-12-31T13:05:58.628Z,101238.14
2018-12-31T13:09:04.747Z,101236.09
2018-12-31T13:12:10.256Z,101246.06
2018-12-31T13:15:15.586Z,101250.52
2018-12-31T13:18:22.154Z,101246.02
2018-12-31T13:21:27.403Z,101253.44
2018-12-31T13:24:32.728Z,101253.81
2018-12-31T13:27:37.879Z,101253.13
2018-12-31T13:30:43.262Z,101263.88
2018-12-31T13:33:48.462Z,101262.39
2018-12-31T13:36:53.659Z,101261.38
2018-12-31T13:39:59.054Z,101264.42
2018-12-31T13:43:04.331Z,101264.37
2018-12-31T13:46:09.563Z,101251.80
2018-12-31T13:49:14.702Z,101248.63
2018-12-31T13:52:19.878Z,101250.13
2018-12-31T13:55:25.086Z,101245.73
2018-12-31T13:58:30.272Z,101247.75
2018-12-31T14:01:35.444Z,101249.59
2018-12-31T14:04:40.953Z,101260.36
2018-12-31T14:07:46.165Z,101261.39
2018-12-31T14:10:51.421Z,101266.61
2018-12-31T14:13:56.566Z,101274.00
2018-12-31T14:17:02.157Z,101274.33
2018-12-31T14:20:07.506Z,101280.23
2018-12-31T14:23:12.949Z,101283.05
2018-12-31T14:26:18.288Z,101282.39
2018-12-31T14:29:23.798Z,101283.58
2018-12-31T14:32:28.992Z,101285.78
2018-12-31T14:35:34.318Z,101294.19
2018-12-31T14:38:39.509Z,101292.84
2018-12-31T14:41:45.871Z,101286.05
2018-12-31T14:44:51.108Z,101282.55
2018-12-31T14:47:56.303Z,101291.40
2018-12-31T14:51:01.494Z,101290.30
2018-12-31T14:54:06.909Z,101302.48
2018-12-31T14:57:12.125Z,101298.20
2018-12-31T15:00:17.468Z,101306.95
2018-12-31T15:03:22.755Z,101302.22
2018-12-31T15:06:27.913Z,101294.34
2018-12-31T15:09:33.251Z,101304.75
2018-12-31T15:12:38.421Z,101309.72
2018-12-31T15:15:44.333Z,101314.39
2018-12-31T15:18:49.588Z,101312.23
2018-12-31T15:21:55.002Z,101317.68
2018-12-31T15:25:00.185Z,101323.29
2018-12-31T15:28:05.623Z,101326.97
2018-12-31T15:31:10.828Z,101317.92
2018-12-31T15:34:16.065Z,101323.99
2018-12-31T15:37:21.223Z,101325.98
2018-12-31T15:40:26.582Z,101318.37
2018-12-31T15:43:31.718Z,101312.52
2018-12-31T15:46:36.897Z,101305.92
2018-12-31T15:49:42.167Z,101301.05
2018-12-31T15:52:47.431Z,101307.80
2018-12-31T15:55:52.763Z,101305.84
2018-12-31T15:58:58.070Z,101305.67
2018-12-31T16:02:08.016Z,101305.77
2018-12-31T16:05:13.181Z,101317.98
2018-12-31T16:08:18.525Z,101315.77
2018-12-31T16:11:25.155Z,101316.45
2018-12-31T16:14:30.595Z,101316.05
2018-12-31T16:17:35.937Z,101319.28
2018-12-31T16:20:41.226Z,101319.80
2018-12-31T16:23:46.442Z,101322.48
2018-12-31T16:26:52.197Z,101320.45
2018-12-31T16:29:57.449Z,101326.28
2018-12-31T16:33:02.709Z,101330.97
2018-12-31T16:36:07.911Z,101330.97
2018-12-31T16:39:13.178Z,101329.20
2018-12-31T16:42:18.871Z,101332.16
2018-12-31T16:45:24.261Z,101328.64
2018-12-31T16:48:32.248Z,101326.80
2018-12-31T16:51:37.541Z,101338.18
2018-12-31T16:54:42.712Z,101332.95
2018-12-31T16:57:47.934Z,101335.55
2018-12-31T17:00:53.885Z,101331.51
2018-12-31T17:03:59.077Z,101334.11
2018-12-31T17:07:04.271Z,101335.09
2018-12-31T17:10:10.797Z,101325.69
2018-12-31T17:13:16.438Z,101315.36
2018-12-31T17:16:21.568Z,101312.09
2018-12-31T17:19:28.658Z,101315.88
2018-12-31T17:22:33.831Z,101314.20
2018-12-31T17:25:39.152Z,101312.40
2018-12-31T17:28:45.389Z,101315.22
2018-12-31T17:31:50.591Z,101320.88
2018-12-31T17:34:55.863Z,101318.28
2018-12-31T17:38:01.391Z,101316.61
2018-12-31T17:41:06.576Z,101321.25
2018-12-31T17:44:12.072Z,101316.56
2018-12-31T17:47:17.356Z,101314.72
2018-12-31T17:50:22.537Z,101317.22
2018-12-31T17:53:27.763Z,101321.42
2018-12-31T17:56:33.003Z,101325.64
2018-12-31T17:59:38.713Z,101323.97
2018-12-31T18:02:44.085Z,101328.31
2018-12-31T18:05:49.245Z,101338.09
2018-12-31T18:08:54.390Z,101337.39
2018-12-31T18:11:59.678Z,101339.38
2018-12-31T18:15:05.091Z,101339.51
2018-12-31T18:18:10.431Z,101343.34
2018-12-31T18:21:15.593Z,101352.75
2018-12-31T18:24:20.804Z,101351.69
2018-12-31T18:27:26.123Z,101353.84
2018-12-31T18:30:31.373Z,101352.17
2018-12-31T18:33:36.556Z,101358.33
2018-12-31T18:36:41.886Z,101358.69
2018-12-31T18:39:49.376Z,101353.28
2018-12-31T18:42:54.017Z,101361.31
2018-12-31T18:45:59.442Z,101364.02
2018-12-31T18:49:04.695Z,101348.92
2018-12-31T18:52:09.900Z,101349.23
2018-12-31T18:55:15.171Z,101346.17
2018-12-31T18:58:20.418Z,101348.55
2018-12-31T19:01:25.587Z,101348.72
2018-12-31T19:04:30.861Z,101356.21
2018-12-31T19:07:36.182Z,101359.33
2018-12-31T19:10:41.372Z,101350.34
2018-12-31T19:13:46.693Z,101350.14
2018-12-31T19:16:51.844Z,101349.11
2018-12-31T19:19:57.631Z,101345.41
2018-12-31T19:23:02.788Z,101342.91
2018-12-31T19:26:08.126Z,101342.23
2018-12-31T19:29:13.356Z,101347.30
2018-12-31T19:32:18.546Z,101353.45
2018-12-31T19:35:23.683Z,101350.47
2018-12-31T19:38:28.915Z,101350.28
2018-12-31T19:41:34.081Z,101352.06
2018-12-31T19:44:39.404Z,101359.33
2018-12-31T19:47:44.550Z,101352.91
2018-12-31T19:50:49.736Z,101356.59
2018-12-31T19:53:55.078Z,101342.13
2018-12-31T19:57:00.228Z,101334.81
2018-12-31T20:00:05.882Z,101337.88
2018-12-31T20:03:11.683Z,101330.79
2018-12-31T20:06:16.922Z,101324.73
2018-12-31T20:09:22.104Z,101319.21
2018-12-31T20:12:27.328Z,101319.35
2018-12-31T20:15:32.542Z,101308.95
2018-12-31T20:18:37.679Z,101305.42
2018-12-31T20:21:42.928Z,101316.33
2018-12-31T20:24:48.149Z,101310.03
2018-12-31T20:27:53.475Z,101311.30
2018-12-31T20:30:58.643Z,101313.98
2018-12-31T20:34:03.945Z,101318.83
2018-12-31T20:37:09.268Z,101319.30
2018-12-31T20:40:14.450Z,101324.40
2018-12-31T20:43:19.597Z,101324.84
2018-12-31T20:46:24.859Z,101331.28
2018-12-31T20:49:30.515Z,101319.36
2018-12-31T20:52:35.712Z,101311.76
2018-12-31T20:55:40.990Z,101314.62
2018-12-31T20:58:46.165Z,101312.44
2018-12-31T21:01:51.308Z,101323.81
2018-12-31T21:04:56.527Z,101324.80
2018-12-31T21:08:01.734Z,101311.57
2018-12-31T21:11:07.290Z,101327.65
2018-12-31T21:14:12.491Z,101314.62
2018-12-31T21:17:17.670Z,101312.13
2018-12-31T21:20:22.896Z,101314.94
2018-12-31T21:23:28.276Z,101320.95
2018-12-31T21:26:33.726Z,101321.64
2018-12-31T21:29:38.954Z,101322.11
2018-12-31T21:32:44.172Z,101319.98
2018-12-31T21:35:49.358Z,101311.69
2018-12-31T21:38:54.663Z,101309.84
2018-12-31T21:41:59.887Z,101309.77
2018-12-31T21:45:05.496Z,101316.78
2018-12-31T21:48:10.666Z,101317.77
2018-12-31T21:51:15.933Z,101322.53
2018-12-31T21:54:21.110Z,101323.51
2018-12-31T21:57:26.405Z,101319.74
2018-12-31T22:00:31.568Z,101324.20
2018-12-31T22:03:36.837Z,101324.59
2018-12-31T22:06:42.293Z,101323.62
2018-12-31T22:09:47.569Z,101315.22
2018-12-31T22:12:52.861Z,101316.21
2018-12-31T22:15:58.035Z,101322.17
2018-12-31T22:19:03.286Z,101312.47
2018-12-31T22:22:08.501Z,101311.11
2018-12-31T22:25:13.854Z,101312.47
2018-12-31T22:28:19.148Z,101313.27
2018-12-31T22:31:24.367Z,101317.63
2018-12-31T22:34:29.534Z,101313.46
2018-12-31T22:37:34.753Z,101313.28
2018-12-31T22:40:40.335Z,101301.14
2018-12-31T22:43:45.570Z,101309.50
2018-12-31T22:46:50.937Z,101298.97
2018-12-31T22:49:56.337Z,101293.05
2018-12-31T22:53:01.491Z,101287.37
2018-12-31T22:56:06.677Z,101293.93
2018-12-31T22:59:13.359Z,101299.17
2018-12-31T23:02:18.514Z,101302.31
2018-12-31T23:05:23.716Z,101295.78
2018-12-31T23:08:29.199Z,101291.19
2018-12-31T23:11:34.522Z,101290.37
2018-12-31T23:14:39.811Z,101288.71
2018-12-31T23:17:45.228Z,101292.42
2018-12-31T23:20:50.550Z,101283.71
2018-12-31T23:23:55.810Z,101283.71
2018-12-31T23:27:02.418Z,101270.81
2018-12-31T23:30:08.978Z,101265.96
2018-12-31T23:33:14.256Z,101269.20
2018-12-31T23:36:19.453Z,101269.86
2018-12-31T23:39:24.762Z,101259.31
2018-12-31T23:42:30.097Z,101265.06
2018-12-31T23:45:35.317Z,101257.06
2018-12-31T23:48:40.637Z,101263.17
2018-12-31T23:51:45.926Z,101247.58
2018-12-31T23:54:51.169Z,101255.39
2018-12-31T23:57:56.532Z,101253.69
